sensor_id;sensor_type;location;lat;lon;timestamp;temperature;humidity
48589;DHT22;34369;51.174;6.738;2022-11-20T00:03:30;4.30;79.20
48589;DHT22;34369;51.174;6.738;2022-11-20T00:06:03;4.30;79.40
48589;DHT22;34369;51.174;6.738;2022-11-20T00:08:39;4.20;79.70
48589;DHT22;34369;51.174;6.738;2022-11-20T00:11:13;4.30;79.70
48589;DHT22;34369;51.174;6.738;2022-11-20T00:14:08;4.30;80.00
48589;DHT22;34369;51.174;6.738;2022-11-20T00:16:44;4.30;80.20
48589;DHT22;34369;51.174;6.738;2022-11-20T00:19:17;4.30;80.40
48589;DHT22;34369;51.174;6.738;2022-11-20T00:21:49;4.20;80.30
48589;DHT22;34369;51.174;6.738;2022-11-20T00:24:24;4.20;80.60
48589;DHT22;34369;51.174;6.738;2022-11-20T00:26:58;4.10;81.30
48589;DHT22;34369;51.174;6.738;2022-11-20T00:29:32;4.30;81.30
48589;DHT22;34369;51.174;6.738;2022-11-20T00:32:04;4.20;81.10
48589;DHT22;34369;51.174;6.738;2022-11-20T00:34:36;4.30;81.00
48589;DHT22;34369;51.174;6.738;2022-11-20T00:37:09;4.30;81.10
48589;DHT22;34369;51.174;6.738;2022-11-20T00:39:42;4.30;81.10
48589;DHT22;34369;51.174;6.738;2022-11-20T00:42:15;4.30;81.40
48589;DHT22;34369;51.174;6.738;2022-11-20T00:44:48;4.30;81.60
48589;DHT22;34369;51.174;6.738;2022-11-20T00:47:21;4.30;81.30
48589;DHT22;34369;51.174;6.738;2022-11-20T00:49:53;3.30;80.40
48589;DHT22;34369;51.174;6.738;2022-11-20T00:52:26;4.20;80.10
48589;DHT22;34369;51.174;6.738;2022-11-20T00:54:59;4.20;80.10
48589;DHT22;34369;51.174;6.738;2022-11-20T00:57:32;4.30;80.00
48589;DHT22;34369;51.174;6.738;2022-11-20T01:00:07;4.20;80.20
48589;DHT22;34369;51.174;6.738;2022-11-20T01:02:41;4.20;80.40
48589;DHT22;34369;51.174;6.738;2022-11-20T01:05:17;4.40;80.70
48589;DHT22;34369;51.174;6.738;2022-11-20T01:07:49;4.30;80.60
48589;DHT22;34369;51.174;6.738;2022-11-20T01:10:23;4.30;80.70
48589;DHT22;34369;51.174;6.738;2022-11-20T01:12:56;4.30;80.90
48589;DHT22;34369;51.174;6.738;2022-11-20T01:15:43;4.20;80.80
48589;DHT22;34369;51.174;6.738;2022-11-20T01:18:16;4.20;80.40
48589;DHT22;34369;51.174;6.738;2022-11-20T01:20:48;4.30;80.40
48589;DHT22;34369;51.174;6.738;2022-11-20T01:23:21;4.20;80.60
48589;DHT22;34369;51.174;6.738;2022-11-20T01:25:53;4.30;80.60
48589;DHT22;34369;51.174;6.738;2022-11-20T01:28:26;4.30;80.70
48589;DHT22;34369;51.174;6.738;2022-11-20T01:31:12;4.30;81.00
48589;DHT22;34369;51.174;6.738;2022-11-20T01:33:48;4.20;80.80
48589;DHT22;34369;51.174;6.738;2022-11-20T01:36:25;4.30;80.90
48589;DHT22;34369;51.174;6.738;2022-11-20T01:39:00;4.30;80.80
48589;DHT22;34369;51.174;6.738;2022-11-20T01:41:35;4.20;80.80
48589;DHT22;34369;51.174;6.738;2022-11-20T01:44:45;4.20;80.90
48589;DHT22;34369;51.174;6.738;2022-11-20T01:47:29;4.20;80.70
48589;DHT22;34369;51.174;6.738;2022-11-20T01:50:13;4.20;80.80
48589;DHT22;34369;51.174;6.738;2022-11-20T01:52:50;4.30;81.00
48589;DHT22;34369;51.174;6.738;2022-11-20T01:55:26;4.30;80.90
48589;DHT22;34369;51.174;6.738;2022-11-20T01:58:02;4.20;80.90
48589;DHT22;34369;51.174;6.738;2022-11-20T02:00:35;4.20;80.80
48589;DHT22;34369;51.174;6.738;2022-11-20T02:03:12;4.30;80.60
48589;DHT22;34369;51.174;6.738;2022-11-20T02:05:51;4.10;80.10
48589;DHT22;34369;51.174;6.738;2022-11-20T02:08:28;4.20;80.20
48589;DHT22;34369;51.174;6.738;2022-11-20T02:11:01;4.00;80.20
48589;DHT22;34369;51.174;6.738;2022-11-20T02:13:34;4.10;80.00
48589;DHT22;34369;51.174;6.738;2022-11-20T02:16:19;4.00;80.00
48589;DHT22;34369;51.174;6.738;2022-11-20T02:18:57;4.00;79.80
48589;DHT22;34369;51.174;6.738;2022-11-20T02:21:36;4.00;79.90
48589;DHT22;34369;51.174;6.738;2022-11-20T02:24:18;3.90;80.00
48589;DHT22;34369;51.174;6.738;2022-11-20T02:26:53;3.80;80.10
48589;DHT22;34369;51.174;6.738;2022-11-20T02:29:32;3.80;80.30
48589;DHT22;34369;51.174;6.738;2022-11-20T02:32:18;3.70;79.90
48589;DHT22;34369;51.174;6.738;2022-11-20T02:34:53;3.50;80.00
48589;DHT22;34369;51.174;6.738;2022-11-20T02:37:30;3.50;80.20
48589;DHT22;34369;51.174;6.738;2022-11-20T02:40:08;3.50;80.20
48589;DHT22;34369;51.174;6.738;2022-11-20T02:42:41;3.50;80.70
48589;DHT22;34369;51.174;6.738;2022-11-20T02:45:13;3.30;80.30
48589;DHT22;34369;51.174;6.738;2022-11-20T02:47:46;3.20;80.40
48589;DHT22;34369;51.174;6.738;2022-11-20T02:50:19;3.10;80.60
48589;DHT22;34369;51.174;6.738;2022-11-20T02:52:52;3.00;80.70
48589;DHT22;34369;51.174;6.738;2022-11-20T02:55:28;3.00;80.60
48589;DHT22;34369;51.174;6.738;2022-11-20T02:58:00;2.90;80.70
48589;DHT22;34369;51.174;6.738;2022-11-20T03:00:33;2.80;80.90
48589;DHT22;34369;51.174;6.738;2022-11-20T03:03:06;2.80;81.40
48589;DHT22;34369;51.174;6.738;2022-11-20T03:05:39;2.60;81.70
48589;DHT22;34369;51.174;6.738;2022-11-20T03:08:11;2.60;82.10
48589;DHT22;34369;51.174;6.738;2022-11-20T03:10:45;2.50;82.20
48589;DHT22;34369;51.174;6.738;2022-11-20T03:13:18;2.50;82.40
48589;DHT22;34369;51.174;6.738;2022-11-20T03:15:51;2.50;82.60
48589;DHT22;34369;51.174;6.738;2022-11-20T03:18:23;2.40;83.00
48589;DHT22;34369;51.174;6.738;2022-11-20T03:20:57;2.40;83.10
48589;DHT22;34369;51.174;6.738;2022-11-20T03:23:35;2.40;83.30
48589;DHT22;34369;51.174;6.738;2022-11-20T03:26:15;2.30;82.80
48589;DHT22;34369;51.174;6.738;2022-11-20T03:28:51;2.30;82.80
48589;DHT22;34369;51.174;6.738;2022-11-20T03:31:26;2.30;82.80
48589;DHT22;34369;51.174;6.738;2022-11-20T03:34:01;2.10;83.10
48589;DHT22;34369;51.174;6.738;2022-11-20T03:36:34;2.00;83.10
48589;DHT22;34369;51.174;6.738;2022-11-20T03:39:11;2.30;84.70
48589;DHT22;34369;51.174;6.738;2022-11-20T03:41:45;1.90;83.30
48589;DHT22;34369;51.174;6.738;2022-11-20T03:44:21;2.00;84.00
48589;DHT22;34369;51.174;6.738;2022-11-20T03:46:54;2.10;83.80
48589;DHT22;34369;51.174;6.738;2022-11-20T03:49:27;2.00;84.00
48589;DHT22;34369;51.174;6.738;2022-11-20T03:54:33;2.00;84.70
48589;DHT22;34369;51.174;6.738;2022-11-20T03:57:07;1.90;84.90
48589;DHT22;34369;51.174;6.738;2022-11-20T03:59:40;1.80;84.60
48589;DHT22;34369;51.174;6.738;2022-11-20T04:02:14;1.20;84.90
48589;DHT22;34369;51.174;6.738;2022-11-20T04:04:47;1.90;84.90
48589;DHT22;34369;51.174;6.738;2022-11-20T04:07:19;1.80;85.30
48589;DHT22;34369;51.174;6.738;2022-11-20T04:12:26;1.80;85.50
48589;DHT22;34369;51.174;6.738;2022-11-20T04:15:01;1.80;85.70
48589;DHT22;34369;51.174;6.738;2022-11-20T04:17:34;2.00;88.50
48589;DHT22;34369;51.174;6.738;2022-11-20T04:20:10;1.90;85.90
48589;DHT22;34369;51.174;6.738;2022-11-20T04:22:52;1.80;85.90
48589;DHT22;34369;51.174;6.738;2022-11-20T04:25:26;1.90;86.10
48589;DHT22;34369;51.174;6.738;2022-11-20T04:27:59;1.90;86.40
48589;DHT22;34369;51.174;6.738;2022-11-20T04:30:32;1.90;86.60
48589;DHT22;34369;51.174;6.738;2022-11-20T04:33:04;1.80;86.70
48589;DHT22;34369;51.174;6.738;2022-11-20T04:35:36;1.80;86.80
48589;DHT22;34369;51.174;6.738;2022-11-20T04:38:10;1.90;86.80
48589;DHT22;34369;51.174;6.738;2022-11-20T04:43:16;2.00;87.10
48589;DHT22;34369;51.174;6.738;2022-11-20T04:45:50;2.00;87.10
48589;DHT22;34369;51.174;6.738;2022-11-20T04:48:23;2.10;87.40
48589;DHT22;34369;51.174;6.738;2022-11-20T04:50:58;2.00;87.50
48589;DHT22;34369;51.174;6.738;2022-11-20T04:56:10;2.00;87.50
48589;DHT22;34369;51.174;6.738;2022-11-20T04:58:44;2.10;87.50
48589;DHT22;34369;51.174;6.738;2022-11-20T05:01:19;-1.00;85.80
48589;DHT22;34369;51.174;6.738;2022-11-20T05:03:53;2.10;88.00
48589;DHT22;34369;51.174;6.738;2022-11-20T05:06:27;2.20;87.50
48589;DHT22;34369;51.174;6.738;2022-11-20T05:09:01;2.20;87.60
48589;DHT22;34369;51.174;6.738;2022-11-20T05:11:34;2.20;87.60
48589;DHT22;34369;51.174;6.738;2022-11-20T05:14:07;2.30;87.70
48589;DHT22;34369;51.174;6.738;2022-11-20T05:16:40;2.20;87.90
48589;DHT22;34369;51.174;6.738;2022-11-20T05:19:12;2.30;87.70
48589;DHT22;34369;51.174;6.738;2022-11-20T05:21:45;2.30;87.60
48589;DHT22;34369;51.174;6.738;2022-11-20T05:24:17;2.20;87.60
48589;DHT22;34369;51.174;6.738;2022-11-20T05:29:25;2.20;87.90
48589;DHT22;34369;51.174;6.738;2022-11-20T05:31:58;2.20;88.10
48589;DHT22;34369;51.174;6.738;2022-11-20T05:37:04;2.20;88.10
48589;DHT22;34369;51.174;6.738;2022-11-20T05:42:10;2.30;88.10
48589;DHT22;34369;51.174;6.738;2022-11-20T05:45:03;2.30;88.40
48589;DHT22;34369;51.174;6.738;2022-11-20T05:51:55;2.40;88.30
48589;DHT22;34369;51.174;6.738;2022-11-20T06:03:14;2.40;88.50
48589;DHT22;34369;51.174;6.738;2022-11-20T06:10:17;2.50;88.70
48589;DHT22;34369;51.174;6.738;2022-11-20T06:13:15;2.50;88.50
48589;DHT22;34369;51.174;6.738;2022-11-20T06:20:32;2.40;88.40
48589;DHT22;34369;51.174;6.738;2022-11-20T06:23:18;2.50;88.60
48589;DHT22;34369;51.174;6.738;2022-11-20T06:25:51;2.50;88.70
48589;DHT22;34369;51.174;6.738;2022-11-20T06:28:26;2.60;88.70
48589;DHT22;34369;51.174;6.738;2022-11-20T06:31:02;2.50;88.50
48589;DHT22;34369;51.174;6.738;2022-11-20T06:33:37;2.60;88.60
48589;DHT22;34369;51.174;6.738;2022-11-20T06:36:23;2.50;88.40
48589;DHT22;34369;51.174;6.738;2022-11-20T06:39:06;2.50;88.20
48589;DHT22;34369;51.174;6.738;2022-11-20T06:46:23;2.40;87.80
48589;DHT22;34369;51.174;6.738;2022-11-20T07:01:21;2.10;87.70
48589;DHT22;34369;51.174;6.738;2022-11-20T07:04:12;2.10;87.90
48589;DHT22;34369;51.174;6.738;2022-11-20T07:06:56;1.90;88.10
48589;DHT22;34369;51.174;6.738;2022-11-20T07:09:31;2.10;88.70
48589;DHT22;34369;51.174;6.738;2022-11-20T07:12:09;2.10;88.20
48589;DHT22;34369;51.174;6.738;2022-11-20T07:14:56;2.10;88.40
48589;DHT22;34369;51.174;6.738;2022-11-20T07:17:36;2.10;88.20
48589;DHT22;34369;51.174;6.738;2022-11-20T07:20:16;2.10;88.50
48589;DHT22;34369;51.174;6.738;2022-11-20T07:22:54;2.10;88.60
48589;DHT22;34369;51.174;6.738;2022-11-20T07:25:32;1.90;88.60
48589;DHT22;34369;51.174;6.738;2022-11-20T07:28:11;1.90;88.70
48589;DHT22;34369;51.174;6.738;2022-11-20T07:30:53;2.00;88.90
48589;DHT22;34369;51.174;6.738;2022-11-20T07:33:34;2.00;89.00
48589;DHT22;34369;51.174;6.738;2022-11-20T07:36:24;2.00;89.10
48589;DHT22;34369;51.174;6.738;2022-11-20T07:39:03;1.90;89.30
48589;DHT22;34369;51.174;6.738;2022-11-20T07:41:40;2.00;89.60
48589;DHT22;34369;51.174;6.738;2022-11-20T07:44:18;2.00;90.00
48589;DHT22;34369;51.174;6.738;2022-11-20T07:46:54;2.00;90.00
48589;DHT22;34369;51.174;6.738;2022-11-20T07:49:33;2.10;89.70
48589;DHT22;34369;51.174;6.738;2022-11-20T07:52:12;2.10;89.90
48589;DHT22;34369;51.174;6.738;2022-11-20T07:54:53;2.10;90.00
48589;DHT22;34369;51.174;6.738;2022-11-20T07:57:32;2.10;90.20
48589;DHT22;34369;51.174;6.738;2022-11-20T08:00:13;2.30;90.10
48589;DHT22;34369;51.174;6.738;2022-11-20T08:02:50;3.30;90.40
48589;DHT22;34369;51.174;6.738;2022-11-20T08:05:37;2.20;90.10
48589;DHT22;34369;51.174;6.738;2022-11-20T08:08:24;2.30;90.20
48589;DHT22;34369;51.174;6.738;2022-11-20T08:11:03;2.40;90.20
48589;DHT22;34369;51.174;6.738;2022-11-20T08:13:56;2.40;90.10
48589;DHT22;34369;51.174;6.738;2022-11-20T08:16:52;2.40;90.10
48589;DHT22;34369;51.174;6.738;2022-11-20T08:19:29;2.50;90.20
48589;DHT22;34369;51.174;6.738;2022-11-20T08:22:09;2.50;90.30
48589;DHT22;34369;51.174;6.738;2022-11-20T08:24:51;2.60;90.40
48589;DHT22;34369;51.174;6.738;2022-11-20T08:27:28;2.70;90.40
48589;DHT22;34369;51.174;6.738;2022-11-20T08:30:09;2.60;90.30
48589;DHT22;34369;51.174;6.738;2022-11-20T08:32:52;2.70;90.30
48589;DHT22;34369;51.174;6.738;2022-11-20T08:35:33;2.90;90.50
48589;DHT22;34369;51.174;6.738;2022-11-20T08:38:16;5.60;91.10
48589;DHT22;34369;51.174;6.738;2022-11-20T08:40:58;2.90;90.50
48589;DHT22;34369;51.174;6.738;2022-11-20T08:43:55;2.90;90.40
48589;DHT22;34369;51.174;6.738;2022-11-20T08:46:36;3.00;90.50
48589;DHT22;34369;51.174;6.738;2022-11-20T08:49:32;3.10;90.50
48589;DHT22;34369;51.174;6.738;2022-11-20T08:52:55;3.10;90.50
48589;DHT22;34369;51.174;6.738;2022-11-20T08:55:39;3.30;90.40
48589;DHT22;34369;51.174;6.738;2022-11-20T08:58:19;3.30;90.40
48589;DHT22;34369;51.174;6.738;2022-11-20T09:00:59;3.40;90.40
48589;DHT22;34369;51.174;6.738;2022-11-20T09:03:36;3.40;90.20
48589;DHT22;34369;51.174;6.738;2022-11-20T09:06:22;3.50;90.20
48589;DHT22;34369;51.174;6.738;2022-11-20T09:09:02;3.60;90.30
48589;DHT22;34369;51.174;6.738;2022-11-20T09:11:44;3.60;90.20
48589;DHT22;34369;51.174;6.738;2022-11-20T09:14:24;3.70;90.20
48589;DHT22;34369;51.174;6.738;2022-11-20T09:17:04;3.60;90.00
48589;DHT22;34369;51.174;6.738;2022-11-20T09:19:46;3.70;90.00
48589;DHT22;34369;51.174;6.738;2022-11-20T09:22:25;3.80;90.10
48589;DHT22;34369;51.174;6.738;2022-11-20T09:25:05;3.80;89.20
48589;DHT22;34369;51.174;6.738;2022-11-20T09:27:54;3.90;89.20
48589;DHT22;34369;51.174;6.738;2022-11-20T09:30:31;4.00;89.20
48589;DHT22;34369;51.174;6.738;2022-11-20T09:33:06;4.10;89.40
48589;DHT22;34369;51.174;6.738;2022-11-20T09:35:40;4.00;90.00
48589;DHT22;34369;51.174;6.738;2022-11-20T09:38:14;4.30;89.10
48589;DHT22;34369;51.174;6.738;2022-11-20T09:40:57;4.30;88.20
48589;DHT22;34369;51.174;6.738;2022-11-20T09:43:46;4.30;87.10
48589;DHT22;34369;51.174;6.738;2022-11-20T09:46:33;4.40;87.10
48589;DHT22;34369;51.174;6.738;2022-11-20T09:49:23;4.60;86.60
48589;DHT22;34369;51.174;6.738;2022-11-20T09:52:15;4.60;86.40
48589;DHT22;34369;51.174;6.738;2022-11-20T09:54:57;4.60;85.90
48589;DHT22;34369;51.174;6.738;2022-11-20T09:57:36;4.60;85.70
48589;DHT22;34369;51.174;6.738;2022-11-20T10:00:20;4.60;85.90
48589;DHT22;34369;51.174;6.738;2022-11-20T10:03:03;4.70;85.50
48589;DHT22;34369;51.174;6.738;2022-11-20T10:05:51;4.70;85.10
48589;DHT22;34369;51.174;6.738;2022-11-20T10:08:38;4.70;85.10
48589;DHT22;34369;51.174;6.738;2022-11-20T10:11:24;4.80;85.10
48589;DHT22;34369;51.174;6.738;2022-11-20T10:14:16;4.80;84.50
48589;DHT22;34369;51.174;6.738;2022-11-20T10:17:12;4.80;84.40
48589;DHT22;34369;51.174;6.738;2022-11-20T10:27:41;4.60;84.30
48589;DHT22;34369;51.174;6.738;2022-11-20T10:30:31;4.80;84.10
48589;DHT22;34369;51.174;6.738;2022-11-20T10:33:15;4.80;84.30
48589;DHT22;34369;51.174;6.738;2022-11-20T10:35:54;4.80;84.60
48589;DHT22;34369;51.174;6.738;2022-11-20T10:38:37;4.80;83.60
48589;DHT22;34369;51.174;6.738;2022-11-20T10:41:19;4.80;83.70
48589;DHT22;34369;51.174;6.738;2022-11-20T10:44:03;4.90;83.70
48589;DHT22;34369;51.174;6.738;2022-11-20T10:46:40;4.90;84.20
48589;DHT22;34369;51.174;6.738;2022-11-20T10:49:18;4.90;83.90
48589;DHT22;34369;51.174;6.738;2022-11-20T10:52:03;5.00;83.60
48589;DHT22;34369;51.174;6.738;2022-11-20T10:54:47;5.00;83.20
48589;DHT22;34369;51.174;6.738;2022-11-20T10:57:34;5.00;83.30
48589;DHT22;34369;51.174;6.738;2022-11-20T11:00:17;5.10;83.40
48589;DHT22;34369;51.174;6.738;2022-11-20T11:02:51;5.00;83.10
48589;DHT22;34369;51.174;6.738;2022-11-20T11:05:34;5.00;83.40
48589;DHT22;34369;51.174;6.738;2022-11-20T11:08:12;4.90;83.70
48589;DHT22;34369;51.174;6.738;2022-11-20T11:10:48;5.10;83.20
48589;DHT22;34369;51.174;6.738;2022-11-20T11:13:27;5.20;83.20
48589;DHT22;34369;51.174;6.738;2022-11-20T11:16:03;5.20;83.10
48589;DHT22;34369;51.174;6.738;2022-11-20T11:21:13;5.20;83.20
48589;DHT22;34369;51.174;6.738;2022-11-20T11:26:36;5.20;82.90
48589;DHT22;34369;51.174;6.738;2022-11-20T11:29:18;5.30;83.30
48589;DHT22;34369;51.174;6.738;2022-11-20T11:32:08;5.20;83.30
48589;DHT22;34369;51.174;6.738;2022-11-20T11:35:03;5.30;83.30
48589;DHT22;34369;51.174;6.738;2022-11-20T11:37:40;5.40;83.40
48589;DHT22;34369;51.174;6.738;2022-11-20T11:40:21;5.30;83.10
48589;DHT22;34369;51.174;6.738;2022-11-20T11:43:06;5.40;83.40
48589;DHT22;34369;51.174;6.738;2022-11-20T11:46:28;5.40;83.40
48589;DHT22;34369;51.174;6.738;2022-11-20T11:49:16;5.50;83.50
48589;DHT22;34369;51.174;6.738;2022-11-20T11:52:00;5.50;83.60
48589;DHT22;34369;51.174;6.738;2022-11-20T11:54:41;5.60;83.50
48589;DHT22;34369;51.174;6.738;2022-11-20T11:57:26;5.50;83.20
48589;DHT22;34369;51.174;6.738;2022-11-20T12:00:15;5.70;83.30
48589;DHT22;34369;51.174;6.738;2022-11-20T12:03:00;5.60;83.00
48589;DHT22;34369;51.174;6.738;2022-11-20T12:05:51;5.70;82.50
48589;DHT22;34369;51.174;6.738;2022-11-20T12:08:32;5.70;82.60
48589;DHT22;34369;51.174;6.738;2022-11-20T12:11:16;4.10;81.60
48589;DHT22;34369;51.174;6.738;2022-11-20T12:13:55;5.80;82.50
48589;DHT22;34369;51.174;6.738;2022-11-20T12:16:50;5.90;82.80
48589;DHT22;34369;51.174;6.738;2022-11-20T12:19:33;5.70;82.80
48589;DHT22;34369;51.174;6.738;2022-11-20T12:22:19;5.80;82.60
48589;DHT22;34369;51.174;6.738;2022-11-20T12:25:10;6.10;82.40
48589;DHT22;34369;51.174;6.738;2022-11-20T12:28:15;5.90;82.20
48589;DHT22;34369;51.174;6.738;2022-11-20T12:31:13;5.90;82.10
48589;DHT22;34369;51.174;6.738;2022-11-20T12:34:22;5.80;82.10
48589;DHT22;34369;51.174;6.738;2022-11-20T12:37:07;5.90;82.10
48589;DHT22;34369;51.174;6.738;2022-11-20T12:39:49;5.80;81.80
48589;DHT22;34369;51.174;6.738;2022-11-20T12:42:39;5.90;82.10
48589;DHT22;34369;51.174;6.738;2022-11-20T12:46:05;6.00;82.10
48589;DHT22;34369;51.174;6.738;2022-11-20T12:49:24;5.90;82.10
48589;DHT22;34369;51.174;6.738;2022-11-20T12:52:16;3.00;80.60
48589;DHT22;34369;51.174;6.738;2022-11-20T12:55:40;5.90;82.20
48589;DHT22;34369;51.174;6.738;2022-11-20T12:58:27;5.70;82.30
48589;DHT22;34369;51.174;6.738;2022-11-20T13:01:28;5.90;82.80
48589;DHT22;34369;51.174;6.738;2022-11-20T13:04:50;5.80;83.10
48589;DHT22;34369;51.174;6.738;2022-11-20T13:07:55;5.80;83.30
48589;DHT22;34369;51.174;6.738;2022-11-20T13:10:51;6.00;83.60
48589;DHT22;34369;51.174;6.738;2022-11-20T13:14:16;5.80;84.10
48589;DHT22;34369;51.174;6.738;2022-11-20T13:17:13;5.70;84.00
48589;DHT22;34369;51.174;6.738;2022-11-20T13:20:17;5.90;84.30
48589;DHT22;34369;51.174;6.738;2022-11-20T13:23:04;5.80;84.60
48589;DHT22;34369;51.174;6.738;2022-11-20T13:26:19;5.80;84.70
48589;DHT22;34369;51.174;6.738;2022-11-20T13:29:40;5.80;85.00
48589;DHT22;34369;51.174;6.738;2022-11-20T13:32:20;7.40;86.20
48589;DHT22;34369;51.174;6.738;2022-11-20T13:34:57;5.90;85.60
48589;DHT22;34369;51.174;6.738;2022-11-20T13:37:37;5.80;85.40
48589;DHT22;34369;51.174;6.738;2022-11-20T13:40:21;5.90;85.40
48589;DHT22;34369;51.174;6.738;2022-11-20T13:43:00;5.90;85.40
48589;DHT22;34369;51.174;6.738;2022-11-20T13:45:40;6.00;85.80
48589;DHT22;34369;51.174;6.738;2022-11-20T13:48:21;6.00;85.00
48589;DHT22;34369;51.174;6.738;2022-11-20T13:51:09;6.00;85.10
48589;DHT22;34369;51.174;6.738;2022-11-20T13:57:46;5.90;84.80
48589;DHT22;34369;51.174;6.738;2022-11-20T14:00:33;6.00;84.90
48589;DHT22;34369;51.174;6.738;2022-11-20T14:03:22;6.00;84.90
48589;DHT22;34369;51.174;6.738;2022-11-20T14:06:04;6.00;85.00
48589;DHT22;34369;51.174;6.738;2022-11-20T14:08:47;6.10;85.40
48589;DHT22;34369;51.174;6.738;2022-11-20T14:11:24;6.00;85.60
48589;DHT22;34369;51.174;6.738;2022-11-20T14:14:03;6.00;85.50
48589;DHT22;34369;51.174;6.738;2022-11-20T14:16:43;6.00;85.20
48589;DHT22;34369;51.174;6.738;2022-11-20T14:19:30;6.00;85.30
48589;DHT22;34369;51.174;6.738;2022-11-20T14:22:14;6.00;85.00
48589;DHT22;34369;51.174;6.738;2022-11-20T14:25:03;6.10;85.00
48589;DHT22;34369;51.174;6.738;2022-11-20T14:27:42;6.10;85.20
48589;DHT22;34369;51.174;6.738;2022-11-20T14:30:28;6.20;84.80
48589;DHT22;34369;51.174;6.738;2022-11-20T14:33:13;6.10;84.90
48589;DHT22;34369;51.174;6.738;2022-11-20T14:35:49;6.30;84.40
48589;DHT22;34369;51.174;6.738;2022-11-20T14:38:27;6.00;83.70
48589;DHT22;34369;51.174;6.738;2022-11-20T14:41:07;6.00;83.60
48589;DHT22;34369;51.174;6.738;2022-11-20T14:43:44;6.10;84.10
48589;DHT22;34369;51.174;6.738;2022-11-20T14:46:21;6.10;83.90
48589;DHT22;34369;51.174;6.738;2022-11-20T14:49:00;6.00;83.90
48589;DHT22;34369;51.174;6.738;2022-11-20T14:51:36;6.00;83.90
48589;DHT22;34369;51.174;6.738;2022-11-20T14:54:14;5.90;83.80
48589;DHT22;34369;51.174;6.738;2022-11-20T14:56:55;5.90;83.90
48589;DHT22;34369;51.174;6.738;2022-11-20T14:59:35;6.00;83.90
48589;DHT22;34369;51.174;6.738;2022-11-20T15:02:18;6.00;83.70
48589;DHT22;34369;51.174;6.738;2022-11-20T15:05:01;5.90;83.90
48589;DHT22;34369;51.174;6.738;2022-11-20T15:07:44;5.90;84.00
48589;DHT22;34369;51.174;6.738;2022-11-20T15:10:24;5.90;84.10
48589;DHT22;34369;51.174;6.738;2022-11-20T15:13:20;5.20;84.10
48589;DHT22;34369;51.174;6.738;2022-11-20T15:16:08;5.90;84.20
48589;DHT22;34369;51.174;6.738;2022-11-20T15:18:59;5.80;84.30
48589;DHT22;34369;51.174;6.738;2022-11-20T15:21:59;5.80;84.30
48589;DHT22;34369;51.174;6.738;2022-11-20T15:24:54;5.80;84.60
48589;DHT22;34369;51.174;6.738;2022-11-20T15:27:37;5.80;84.80
48589;DHT22;34369;51.174;6.738;2022-11-20T15:30:18;5.70;85.30
48589;DHT22;34369;51.174;6.738;2022-11-20T15:32:56;5.70;85.50
48589;DHT22;34369;51.174;6.738;2022-11-20T15:35:38;5.80;85.90
48589;DHT22;34369;51.174;6.738;2022-11-20T15:38:15;5.80;86.40
48589;DHT22;34369;51.174;6.738;2022-11-20T15:41:02;5.80;86.30
48589;DHT22;34369;51.174;6.738;2022-11-20T15:43:45;5.80;86.20
48589;DHT22;34369;51.174;6.738;2022-11-20T15:46:26;5.90;86.60
48589;DHT22;34369;51.174;6.738;2022-11-20T15:49:01;5.70;87.10
48589;DHT22;34369;51.174;6.738;2022-11-20T15:51:34;5.80;87.60
48589;DHT22;34369;51.174;6.738;2022-11-20T15:54:12;5.70;87.30
48589;DHT22;34369;51.174;6.738;2022-11-20T16:09:31;5.70;88.90
48589;DHT22;34369;51.174;6.738;2022-11-20T16:12:03;5.70;89.10
48589;DHT22;34369;51.174;6.738;2022-11-20T16:14:35;5.70;89.50
48589;DHT22;34369;51.174;6.738;2022-11-20T16:17:25;5.80;89.50
48589;DHT22;34369;51.174;6.738;2022-11-20T16:20:13;5.60;89.70
48589;DHT22;34369;51.174;6.738;2022-11-20T16:22:45;5.70;90.10
48589;DHT22;34369;51.174;6.738;2022-11-20T16:25:21;5.70;90.30
48589;DHT22;34369;51.174;6.738;2022-11-20T16:27:53;5.70;90.50
48589;DHT22;34369;51.174;6.738;2022-11-20T16:35:31;5.80;90.70
48589;DHT22;34369;51.174;6.738;2022-11-20T16:40:38;5.80;90.60
48589;DHT22;34369;51.174;6.738;2022-11-20T16:43:18;5.80;90.80
48589;DHT22;34369;51.174;6.738;2022-11-20T16:45:50;5.90;90.70
48589;DHT22;34369;51.174;6.738;2022-11-20T16:48:25;5.70;91.00
48589;DHT22;34369;51.174;6.738;2022-11-20T16:50:57;5.80;91.10
48589;DHT22;34369;51.174;6.738;2022-11-20T16:53:32;5.90;91.00
48589;DHT22;34369;51.174;6.738;2022-11-20T16:56:14;5.90;91.10
48589;DHT22;34369;51.174;6.738;2022-11-20T16:58:53;5.90;91.10
48589;DHT22;34369;51.174;6.738;2022-11-20T17:01:27;5.80;91.40
48589;DHT22;34369;51.174;6.738;2022-11-20T17:04:05;5.90;91.30
48589;DHT22;34369;51.174;6.738;2022-11-20T17:06:40;5.90;91.30
48589;DHT22;34369;51.174;6.738;2022-11-20T17:11:48;6.00;91.40
48589;DHT22;34369;51.174;6.738;2022-11-20T17:22:00;6.00;92.00
48589;DHT22;34369;51.174;6.738;2022-11-20T17:27:08;6.00;92.00
48589;DHT22;34369;51.174;6.738;2022-11-20T17:32:14;6.10;92.20
48589;DHT22;34369;51.174;6.738;2022-11-20T17:34:47;6.10;92.50
48589;DHT22;34369;51.174;6.738;2022-11-20T17:42:27;6.10;92.40
48589;DHT22;34369;51.174;6.738;2022-11-20T17:50:14;6.20;92.50
48589;DHT22;34369;51.174;6.738;2022-11-20T17:57:54;7.40;92.70
48589;DHT22;34369;51.174;6.738;2022-11-20T18:00:34;6.10;92.60
48589;DHT22;34369;51.174;6.738;2022-11-20T18:08:13;6.30;92.50
48589;DHT22;34369;51.174;6.738;2022-11-20T18:13:20;6.40;92.60
48589;DHT22;34369;51.174;6.738;2022-11-20T18:21:25;6.40;92.40
48589;DHT22;34369;51.174;6.738;2022-11-20T18:29:08;6.50;92.50
48589;DHT22;34369;51.174;6.738;2022-11-20T18:47:24;6.50;92.70
48589;DHT22;34369;51.174;6.738;2022-11-20T18:49:59;6.60;92.70
48589;DHT22;34369;51.174;6.738;2022-11-20T18:52:38;6.70;92.80
48589;DHT22;34369;51.174;6.738;2022-11-20T18:55:13;6.70;92.80
48589;DHT22;34369;51.174;6.738;2022-11-20T18:57:46;6.70;92.80
48589;DHT22;34369;51.174;6.738;2022-11-20T19:00:21;6.70;93.10
48589;DHT22;34369;51.174;6.738;2022-11-20T19:05:27;6.80;93.20
48589;DHT22;34369;51.174;6.738;2022-11-20T19:08:00;6.80;93.30
48589;DHT22;34369;51.174;6.738;2022-11-20T19:10:33;7.00;93.40
48589;DHT22;34369;51.174;6.738;2022-11-20T19:13:07;6.90;93.20
48589;DHT22;34369;51.174;6.738;2022-11-20T19:15:41;6.90;93.40
48589;DHT22;34369;51.174;6.738;2022-11-20T19:18:17;7.00;93.50
48589;DHT22;34369;51.174;6.738;2022-11-20T19:20:56;7.10;93.50
48589;DHT22;34369;51.174;6.738;2022-11-20T19:23:29;7.10;93.80
48589;DHT22;34369;51.174;6.738;2022-11-20T19:26:01;7.10;93.50
48589;DHT22;34369;51.174;6.738;2022-11-20T19:28:36;7.10;93.60
48589;DHT22;34369;51.174;6.738;2022-11-20T19:31:12;7.20;93.80
48589;DHT22;34369;51.174;6.738;2022-11-20T19:33:58;7.30;93.90
48589;DHT22;34369;51.174;6.738;2022-11-20T19:36:33;7.40;93.90
48589;DHT22;34369;51.174;6.738;2022-11-20T19:39:08;7.30;93.50
48589;DHT22;34369;51.174;6.738;2022-11-20T19:41:43;7.30;93.60
48589;DHT22;34369;51.174;6.738;2022-11-20T19:44:17;7.40;93.60
48589;DHT22;34369;51.174;6.738;2022-11-20T19:46:50;7.40;93.30
48589;DHT22;34369;51.174;6.738;2022-11-20T20:02:13;7.60;92.80
48589;DHT22;34369;51.174;6.738;2022-11-20T20:04:46;7.70;92.90